sensor_id;sensor_type;location;lat;lon;timestamp;temperature;humidity
12833;DHT22;6483;51.310;4.462;2023-07-31T00:00:45;16.90;99.90
12833;DHT22;6483;51.310;4.462;2023-07-31T00:03:11;17.00;99.90
12833;DHT22;6483;51.310;4.462;2023-07-31T00:05:37;17.00;99.90
12833;DHT22;6483;51.310;4.462;2023-07-31T00:08:03;17.00;99.90
12833;DHT22;6483;51.310;4.462;2023-07-31T00:10:29;17.00;99.90
12833;DHT22;6483;51.310;4.462;2023-07-31T00:12:54;17.10;99.90
12833;DHT22;6483;51.310;4.462;2023-07-31T00:15:20;17.00;99.90
12833;DHT22;6483;51.310;4.462;2023-07-31T00:17:45;17.00;99.90
12833;DHT22;6483;51.310;4.462;2023-07-31T00:20:12;17.00;99.90
12833;DHT22;6483;51.310;4.462;2023-07-31T00:22:37;16.90;99.90
12833;DHT22;6483;51.310;4.462;2023-07-31T00:25:03;17.00;99.90
12833;DHT22;6483;51.310;4.462;2023-07-31T00:27:32;16.90;99.90
12833;DHT22;6483;51.310;4.462;2023-07-31T00:29:57;17.00;99.90
12833;DHT22;6483;51.310;4.462;2023-07-31T00:32:23;17.00;99.90
12833;DHT22;6483;51.310;4.462;2023-07-31T00:34:49;17.00;99.90
12833;DHT22;6483;51.310;4.462;2023-07-31T00:37:14;17.00;99.90
12833;DHT22;6483;51.310;4.462;2023-07-31T00:39:41;17.00;99.90
12833;DHT22;6483;51.310;4.462;2023-07-31T00:42:06;17.00;99.90
12833;DHT22;6483;51.310;4.462;2023-07-31T00:44:33;17.00;99.90
12833;DHT22;6483;51.310;4.462;2023-07-31T00:46:58;17.00;99.90
12833;DHT22;6483;51.310;4.462;2023-07-31T00:49:25;17.10;99.90
12833;DHT22;6483;51.310;4.462;2023-07-31T00:51:51;17.00;99.90
12833;DHT22;6483;51.310;4.462;2023-07-31T00:54:17;17.00;99.90
12833;DHT22;6483;51.310;4.462;2023-07-31T00:56:45;17.10;99.90
12833;DHT22;6483;51.310;4.462;2023-07-31T00:59:11;17.10;99.90
12833;DHT22;6483;51.310;4.462;2023-07-31T01:01:37;17.10;99.90
12833;DHT22;6483;51.310;4.462;2023-07-31T01:04:03;17.10;99.90
12833;DHT22;6483;51.310;4.462;2023-07-31T01:06:36;17.10;99.90
12833;DHT22;6483;51.310;4.462;2023-07-31T01:11:53;17.20;99.90
12833;DHT22;6483;51.310;4.462;2023-07-31T01:14:19;17.20;99.90
12833;DHT22;6483;51.310;4.462;2023-07-31T01:16:44;17.20;99.90
12833;DHT22;6483;51.310;4.462;2023-07-31T01:19:11;17.10;99.90
12833;DHT22;6483;51.310;4.462;2023-07-31T01:27:21;17.10;99.90
12833;DHT22;6483;51.310;4.462;2023-07-31T01:30:25;17.10;99.90
12833;DHT22;6483;51.310;4.462;2023-07-31T01:32:54;17.10;99.90
12833;DHT22;6483;51.310;4.462;2023-07-31T01:35:19;17.20;99.90
12833;DHT22;6483;51.310;4.462;2023-07-31T01:37:45;17.10;99.90
12833;DHT22;6483;51.310;4.462;2023-07-31T01:40:11;17.10;99.90
12833;DHT22;6483;51.310;4.462;2023-07-31T01:42:37;17.10;99.90
12833;DHT22;6483;51.310;4.462;2023-07-31T01:45:03;17.10;99.90
12833;DHT22;6483;51.310;4.462;2023-07-31T01:47:29;17.10;99.90
12833;DHT22;6483;51.310;4.462;2023-07-31T01:49:54;17.10;99.90
12833;DHT22;6483;51.310;4.462;2023-07-31T01:52:20;17.10;99.90
12833;DHT22;6483;51.310;4.462;2023-07-31T01:54:45;17.20;99.90
12833;DHT22;6483;51.310;4.462;2023-07-31T01:57:11;17.20;99.90
12833;DHT22;6483;51.310;4.462;2023-07-31T01:59:37;17.20;99.90
12833;DHT22;6483;51.310;4.462;2023-07-31T02:02:03;17.10;99.90
12833;DHT22;6483;51.310;4.462;2023-07-31T02:04:29;17.20;99.90
12833;DHT22;6483;51.310;4.462;2023-07-31T02:06:54;17.20;99.90
12833;DHT22;6483;51.310;4.462;2023-07-31T02:09:20;17.20;99.90
12833;DHT22;6483;51.310;4.462;2023-07-31T02:11:45;17.20;99.90
12833;DHT22;6483;51.310;4.462;2023-07-31T02:14:11;17.20;99.90
12833;DHT22;6483;51.310;4.462;2023-07-31T02:16:37;17.20;99.90
12833;DHT22;6483;51.310;4.462;2023-07-31T02:19:02;17.20;99.90
12833;DHT22;6483;51.310;4.462;2023-07-31T02:21:28;17.20;99.90
12833;DHT22;6483;51.310;4.462;2023-07-31T02:23:54;17.20;99.90
12833;DHT22;6483;51.310;4.462;2023-07-31T02:26:19;17.20;99.90
12833;DHT22;6483;51.310;4.462;2023-07-31T02:28:45;17.20;99.90
12833;DHT22;6483;51.310;4.462;2023-07-31T02:31:11;17.20;99.90
12833;DHT22;6483;51.310;4.462;2023-07-31T02:33:36;17.20;99.90
12833;DHT22;6483;51.310;4.462;2023-07-31T02:36:02;17.20;99.90
12833;DHT22;6483;51.310;4.462;2023-07-31T02:38:27;17.20;99.90
12833;DHT22;6483;51.310;4.462;2023-07-31T02:40:53;17.20;99.90
12833;DHT22;6483;51.310;4.462;2023-07-31T02:43:19;17.20;99.90
12833;DHT22;6483;51.310;4.462;2023-07-31T02:45:44;17.30;99.90
12833;DHT22;6483;51.310;4.462;2023-07-31T02:48:10;17.30;99.90
12833;DHT22;6483;51.310;4.462;2023-07-31T02:50:36;17.30;99.90
12833;DHT22;6483;51.310;4.462;2023-07-31T02:53:01;17.30;99.90
12833;DHT22;6483;51.310;4.462;2023-07-31T02:55:27;17.40;99.90
12833;DHT22;6483;51.310;4.462;2023-07-31T02:57:53;17.40;99.90
12833;DHT22;6483;51.310;4.462;2023-07-31T03:00:19;17.40;99.90
12833;DHT22;6483;51.310;4.462;2023-07-31T03:02:44;17.40;99.90
12833;DHT22;6483;51.310;4.462;2023-07-31T03:05:10;17.40;99.90
12833;DHT22;6483;51.310;4.462;2023-07-31T03:07:36;17.30;99.90
12833;DHT22;6483;51.310;4.462;2023-07-31T03:10:01;17.30;99.90
12833;DHT22;6483;51.310;4.462;2023-07-31T03:12:27;17.30;99.90
12833;DHT22;6483;51.310;4.462;2023-07-31T03:14:53;17.30;99.90
12833;DHT22;6483;51.310;4.462;2023-07-31T03:17:18;17.30;99.90
12833;DHT22;6483;51.310;4.462;2023-07-31T03:19:44;17.30;99.90
12833;DHT22;6483;51.310;4.462;2023-07-31T03:22:09;17.30;99.90
12833;DHT22;6483;51.310;4.462;2023-07-31T03:24:35;17.30;99.90
12833;DHT22;6483;51.310;4.462;2023-07-31T03:27:01;17.30;99.90
12833;DHT22;6483;51.310;4.462;2023-07-31T03:29:26;17.20;99.90
12833;DHT22;6483;51.310;4.462;2023-07-31T03:31:52;17.20;99.90
12833;DHT22;6483;51.310;4.462;2023-07-31T03:34:18;17.10;99.90
12833;DHT22;6483;51.310;4.462;2023-07-31T03:36:43;17.00;99.90
12833;DHT22;6483;51.310;4.462;2023-07-31T03:39:09;16.80;99.90
12833;DHT22;6483;51.310;4.462;2023-07-31T03:41:35;16.70;99.90
12833;DHT22;6483;51.310;4.462;2023-07-31T03:44:01;16.60;99.90
12833;DHT22;6483;51.310;4.462;2023-07-31T03:46:26;16.60;99.90
12833;DHT22;6483;51.310;4.462;2023-07-31T03:48:59;16.70;99.90
12833;DHT22;6483;51.310;4.462;2023-07-31T03:51:24;16.70;99.90
12833;DHT22;6483;51.310;4.462;2023-07-31T03:53:50;16.80;99.90
12833;DHT22;6483;51.310;4.462;2023-07-31T03:56:16;16.90;99.90
12833;DHT22;6483;51.310;4.462;2023-07-31T03:58:41;16.90;99.90
12833;DHT22;6483;51.310;4.462;2023-07-31T04:01:07;17.00;99.90
12833;DHT22;6483;51.310;4.462;2023-07-31T04:03:33;17.00;99.90
12833;DHT22;6483;51.310;4.462;2023-07-31T04:05:58;17.00;99.90
12833;DHT22;6483;51.310;4.462;2023-07-31T04:08:24;17.00;99.90
12833;DHT22;6483;51.310;4.462;2023-07-31T04:10:50;16.90;99.90
12833;DHT22;6483;51.310;4.462;2023-07-31T04:13:16;16.80;99.90
12833;DHT22;6483;51.310;4.462;2023-07-31T04:15:42;16.60;99.90
12833;DHT22;6483;51.310;4.462;2023-07-31T04:18:07;16.60;99.90
12833;DHT22;6483;51.310;4.462;2023-07-31T04:20:33;16.50;99.90
12833;DHT22;6483;51.310;4.462;2023-07-31T04:22:59;16.50;99.90
12833;DHT22;6483;51.310;4.462;2023-07-31T04:25:25;16.40;99.90
12833;DHT22;6483;51.310;4.462;2023-07-31T04:27:50;16.40;99.90
12833;DHT22;6483;51.310;4.462;2023-07-31T04:30:16;16.40;99.90
12833;DHT22;6483;51.310;4.462;2023-07-31T04:32:42;16.40;99.90
12833;DHT22;6483;51.310;4.462;2023-07-31T04:35:07;16.40;99.90
12833;DHT22;6483;51.310;4.462;2023-07-31T04:37:33;16.40;99.90
12833;DHT22;6483;51.310;4.462;2023-07-31T04:39:58;16.30;99.90
12833;DHT22;6483;51.310;4.462;2023-07-31T04:42:24;16.30;99.90
12833;DHT22;6483;51.310;4.462;2023-07-31T04:44:50;16.30;99.90
12833;DHT22;6483;51.310;4.462;2023-07-31T04:47:16;16.30;99.90
12833;DHT22;6483;51.310;4.462;2023-07-31T04:49:41;16.30;99.90
12833;DHT22;6483;51.310;4.462;2023-07-31T04:52:07;16.30;99.90
12833;DHT22;6483;51.310;4.462;2023-07-31T04:54:33;16.20;99.90
12833;DHT22;6483;51.310;4.462;2023-07-31T04:57:00;16.30;99.90
12833;DHT22;6483;51.310;4.462;2023-07-31T04:59:25;16.30;99.90
12833;DHT22;6483;51.310;4.462;2023-07-31T05:01:51;16.30;99.90
12833;DHT22;6483;51.310;4.462;2023-07-31T05:04:16;16.20;99.90
12833;DHT22;6483;51.310;4.462;2023-07-31T05:06:42;16.20;99.90
12833;DHT22;6483;51.310;4.462;2023-07-31T05:09:08;16.20;99.90
12833;DHT22;6483;51.310;4.462;2023-07-31T05:11:37;16.30;99.90
12833;DHT22;6483;51.310;4.462;2023-07-31T05:14:03;16.30;99.90
12833;DHT22;6483;51.310;4.462;2023-07-31T05:16:29;16.30;99.90
12833;DHT22;6483;51.310;4.462;2023-07-31T05:18:54;16.20;99.90
12833;DHT22;6483;51.310;4.462;2023-07-31T05:21:20;16.20;99.90
12833;DHT22;6483;51.310;4.462;2023-07-31T05:23:45;16.30;99.90
12833;DHT22;6483;51.310;4.462;2023-07-31T05:26:13;16.20;99.90
12833;DHT22;6483;51.310;4.462;2023-07-31T05:28:39;16.20;99.90
12833;DHT22;6483;51.310;4.462;2023-07-31T05:31:05;16.20;99.90
12833;DHT22;6483;51.310;4.462;2023-07-31T05:33:31;16.20;99.90
12833;DHT22;6483;51.310;4.462;2023-07-31T05:35:57;16.20;99.90
12833;DHT22;6483;51.310;4.462;2023-07-31T05:38:23;16.20;99.90
12833;DHT22;6483;51.310;4.462;2023-07-31T05:40:49;16.20;99.90
12833;DHT22;6483;51.310;4.462;2023-07-31T05:43:14;16.20;99.90
12833;DHT22;6483;51.310;4.462;2023-07-31T05:45:42;16.20;99.90
12833;DHT22;6483;51.310;4.462;2023-07-31T05:48:08;16.30;99.90
12833;DHT22;6483;51.310;4.462;2023-07-31T05:50:33;16.30;99.90
12833;DHT22;6483;51.310;4.462;2023-07-31T05:52:59;16.30;99.90
12833;DHT22;6483;51.310;4.462;2023-07-31T05:55:25;16.30;99.90
12833;DHT22;6483;51.310;4.462;2023-07-31T05:57:54;16.40;99.90
12833;DHT22;6483;51.310;4.462;2023-07-31T06:00:20;16.30;99.90
12833;DHT22;6483;51.310;4.462;2023-07-31T06:02:47;16.40;99.90
12833;DHT22;6483;51.310;4.462;2023-07-31T06:05:12;16.40;99.90
12833;DHT22;6483;51.310;4.462;2023-07-31T06:07:38;16.40;99.90
12833;DHT22;6483;51.310;4.462;2023-07-31T06:10:04;16.40;99.90
12833;DHT22;6483;51.310;4.462;2023-07-31T06:12:34;16.40;99.90
12833;DHT22;6483;51.310;4.462;2023-07-31T06:15:01;16.40;99.90
12833;DHT22;6483;51.310;4.462;2023-07-31T06:17:27;16.40;99.90
12833;DHT22;6483;51.310;4.462;2023-07-31T06:19:53;16.50;99.90
12833;DHT22;6483;51.310;4.462;2023-07-31T06:22:19;16.60;99.90
12833;DHT22;6483;51.310;4.462;2023-07-31T06:24:44;16.50;99.90
12833;DHT22;6483;51.310;4.462;2023-07-31T06:27:11;16.50;99.90
12833;DHT22;6483;51.310;4.462;2023-07-31T06:29:36;16.50;99.90
12833;DHT22;6483;51.310;4.462;2023-07-31T06:32:02;16.50;99.90
12833;DHT22;6483;51.310;4.462;2023-07-31T06:34:28;16.50;99.90
12833;DHT22;6483;51.310;4.462;2023-07-31T06:36:53;16.50;99.90
12833;DHT22;6483;51.310;4.462;2023-07-31T06:39:19;16.60;99.90
12833;DHT22;6483;51.310;4.462;2023-07-31T06:41:45;16.60;99.90
12833;DHT22;6483;51.310;4.462;2023-07-31T06:44:11;16.60;99.90
12833;DHT22;6483;51.310;4.462;2023-07-31T06:46:36;16.60;99.90
12833;DHT22;6483;51.310;4.462;2023-07-31T06:49:02;16.60;99.90
12833;DHT22;6483;51.310;4.462;2023-07-31T06:51:28;16.60;99.90
12833;DHT22;6483;51.310;4.462;2023-07-31T06:53:53;16.50;99.90
12833;DHT22;6483;51.310;4.462;2023-07-31T06:56:21;16.50;99.90
12833;DHT22;6483;51.310;4.462;2023-07-31T06:58:46;16.60;99.90
12833;DHT22;6483;51.310;4.462;2023-07-31T07:01:12;16.50;99.90
12833;DHT22;6483;51.310;4.462;2023-07-31T07:03:37;16.60;99.90
12833;DHT22;6483;51.310;4.462;2023-07-31T07:06:03;16.60;99.90
12833;DHT22;6483;51.310;4.462;2023-07-31T07:08:29;16.70;99.90
12833;DHT22;6483;51.310;4.462;2023-07-31T07:10:54;16.70;99.90
12833;DHT22;6483;51.310;4.462;2023-07-31T07:13:21;16.70;99.90
12833;DHT22;6483;51.310;4.462;2023-07-31T07:15:50;16.70;99.90
12833;DHT22;6483;51.310;4.462;2023-07-31T07:18:17;16.70;99.90
12833;DHT22;6483;51.310;4.462;2023-07-31T07:20:53;16.80;99.90
12833;DHT22;6483;51.310;4.462;2023-07-31T07:23:20;16.80;99.90
12833;DHT22;6483;51.310;4.462;2023-07-31T07:25:46;16.80;99.90
12833;DHT22;6483;51.310;4.462;2023-07-31T07:28:12;16.90;99.90
12833;DHT22;6483;51.310;4.462;2023-07-31T07:30:38;16.90;99.90
12833;DHT22;6483;51.310;4.462;2023-07-31T07:33:04;16.80;99.90
12833;DHT22;6483;51.310;4.462;2023-07-31T07:35:29;16.80;99.90
12833;DHT22;6483;51.310;4.462;2023-07-31T07:37:55;16.70;99.90
12833;DHT22;6483;51.310;4.462;2023-07-31T07:40:22;16.80;99.90
12833;DHT22;6483;51.310;4.462;2023-07-31T07:42:47;16.80;99.90
12833;DHT22;6483;51.310;4.462;2023-07-31T07:45:13;16.80;99.90
12833;DHT22;6483;51.310;4.462;2023-07-31T07:47:42;16.90;99.90
12833;DHT22;6483;51.310;4.462;2023-07-31T07:50:08;16.90;99.90
12833;DHT22;6483;51.310;4.462;2023-07-31T07:52:34;17.00;99.90
12833;DHT22;6483;51.310;4.462;2023-07-31T07:54:59;17.10;99.90
12833;DHT22;6483;51.310;4.462;2023-07-31T07:57:26;17.20;99.90
12833;DHT22;6483;51.310;4.462;2023-07-31T07:59:52;17.30;99.90
12833;DHT22;6483;51.310;4.462;2023-07-31T08:02:17;17.50;99.90
12833;DHT22;6483;51.310;4.462;2023-07-31T08:04:43;17.60;99.90
12833;DHT22;6483;51.310;4.462;2023-07-31T08:07:11;17.80;99.90
12833;DHT22;6483;51.310;4.462;2023-07-31T08:09:37;18.00;99.90
12833;DHT22;6483;51.310;4.462;2023-07-31T08:12:04;18.20;99.90
12833;DHT22;6483;51.310;4.462;2023-07-31T08:14:30;18.10;99.90
12833;DHT22;6483;51.310;4.462;2023-07-31T08:16:56;18.20;99.90
12833;DHT22;6483;51.310;4.462;2023-07-31T08:19:21;18.10;99.90
12833;DHT22;6483;51.310;4.462;2023-07-31T08:21:47;18.10;99.90
12833;DHT22;6483;51.310;4.462;2023-07-31T08:24:13;18.10;99.90
12833;DHT22;6483;51.310;4.462;2023-07-31T08:26:38;18.10;99.90
12833;DHT22;6483;51.310;4.462;2023-07-31T08:29:04;18.10;99.90
12833;DHT22;6483;51.310;4.462;2023-07-31T08:31:30;18.10;99.90
12833;DHT22;6483;51.310;4.462;2023-07-31T08:33:56;18.30;99.90
12833;DHT22;6483;51.310;4.462;2023-07-31T08:36:21;18.50;99.90
12833;DHT22;6483;51.310;4.462;2023-07-31T08:38:47;18.80;99.90
12833;DHT22;6483;51.310;4.462;2023-07-31T08:41:13;18.80;99.90
12833;DHT22;6483;51.310;4.462;2023-07-31T08:43:39;18.80;99.90
12833;DHT22;6483;51.310;4.462;2023-07-31T08:46:05;19.00;99.90
12833;DHT22;6483;51.310;4.462;2023-07-31T08:48:32;19.10;99.90
12833;DHT22;6483;51.310;4.462;2023-07-31T08:50:58;19.20;99.90
12833;DHT22;6483;51.310;4.462;2023-07-31T08:53:24;19.20;99.90
12833;DHT22;6483;51.310;4.462;2023-07-31T08:55:52;19.10;99.90
12833;DHT22;6483;51.310;4.462;2023-07-31T08:58:19;19.20;99.90
12833;DHT22;6483;51.310;4.462;2023-07-31T09:00:46;19.10;99.90
12833;DHT22;6483;51.310;4.462;2023-07-31T09:03:17;19.00;99.90
12833;DHT22;6483;51.310;4.462;2023-07-31T09:05:45;19.00;99.90
12833;DHT22;6483;51.310;4.462;2023-07-31T09:08:12;19.00;99.90
12833;DHT22;6483;51.310;4.462;2023-07-31T09:10:45;19.00;99.90
12833;DHT22;6483;51.310;4.462;2023-07-31T09:13:12;19.30;99.90
12833;DHT22;6483;51.310;4.462;2023-07-31T09:15:39;19.30;99.90
12833;DHT22;6483;51.310;4.462;2023-07-31T09:18:06;19.10;99.90
12833;DHT22;6483;51.310;4.462;2023-07-31T09:20:32;19.10;99.90
12833;DHT22;6483;51.310;4.462;2023-07-31T09:23:10;19.10;99.90
12833;DHT22;6483;51.310;4.462;2023-07-31T09:25:37;19.00;99.90
12833;DHT22;6483;51.310;4.462;2023-07-31T09:28:04;18.90;99.90
12833;DHT22;6483;51.310;4.462;2023-07-31T09:30:30;19.10;99.90
12833;DHT22;6483;51.310;4.462;2023-07-31T09:33:06;19.20;99.90
12833;DHT22;6483;51.310;4.462;2023-07-31T09:35:36;19.20;99.90
12833;DHT22;6483;51.310;4.462;2023-07-31T09:38:08;19.10;99.90
12833;DHT22;6483;51.310;4.462;2023-07-31T09:40:36;19.10;99.90
12833;DHT22;6483;51.310;4.462;2023-07-31T09:43:07;19.20;99.90
12833;DHT22;6483;51.310;4.462;2023-07-31T09:45:38;19.30;99.90
12833;DHT22;6483;51.310;4.462;2023-07-31T09:48:07;19.20;99.90
12833;DHT22;6483;51.310;4.462;2023-07-31T09:50:36;19.20;99.90
12833;DHT22;6483;51.310;4.462;2023-07-31T09:53:02;19.10;99.90
12833;DHT22;6483;51.310;4.462;2023-07-31T09:55:29;19.10;99.90
12833;DHT22;6483;51.310;4.462;2023-07-31T09:57:57;19.20;99.90
12833;DHT22;6483;51.310;4.462;2023-07-31T10:00:23;19.20;99.90
12833;DHT22;6483;51.310;4.462;2023-07-31T10:02:51;19.40;99.90
12833;DHT22;6483;51.310;4.462;2023-07-31T10:05:17;19.40;99.90
12833;DHT22;6483;51.310;4.462;2023-07-31T10:07:47;19.30;99.90
12833;DHT22;6483;51.310;4.462;2023-07-31T10:10:16;19.30;99.90
12833;DHT22;6483;51.310;4.462;2023-07-31T10:12:46;19.20;99.90
12833;DHT22;6483;51.310;4.462;2023-07-31T10:15:14;19.00;99.90
12833;DHT22;6483;51.310;4.462;2023-07-31T10:17:41;18.80;99.90
12833;DHT22;6483;51.310;4.462;2023-07-31T10:20:07;18.70;99.90
12833;DHT22;6483;51.310;4.462;2023-07-31T10:22:34;18.70;99.90
12833;DHT22;6483;51.310;4.462;2023-07-31T10:25:00;18.80;99.90
12833;DHT22;6483;51.310;4.462;2023-07-31T10:27:26;18.90;99.90
12833;DHT22;6483;51.310;4.462;2023-07-31T10:29:54;18.80;99.90
12833;DHT22;6483;51.310;4.462;2023-07-31T10:32:20;18.80;99.90
12833;DHT22;6483;51.310;4.462;2023-07-31T10:34:48;18.80;99.90
12833;DHT22;6483;51.310;4.462;2023-07-31T10:37:30;18.80;99.90
12833;DHT22;6483;51.310;4.462;2023-07-31T10:40:06;19.00;99.90
12833;DHT22;6483;51.310;4.462;2023-07-31T10:42:49;19.10;99.90
12833;DHT22;6483;51.310;4.462;2023-07-31T10:48:16;19.10;99.90
12833;DHT22;6483;51.310;4.462;2023-07-31T10:53:31;19.00;99.90
12833;DHT22;6483;51.310;4.462;2023-07-31T10:56:01;18.90;99.90
12833;DHT22;6483;51.310;4.462;2023-07-31T10:58:27;18.90;99.90
12833;DHT22;6483;51.310;4.462;2023-07-31T11:00:57;18.90;99.90
12833;DHT22;6483;51.310;4.462;2023-07-31T11:03:41;19.10;99.90
12833;DHT22;6483;51.310;4.462;2023-07-31T11:06:08;19.10;99.90
12833;DHT22;6483;51.310;4.462;2023-07-31T11:08:40;19.10;99.90
12833;DHT22;6483;51.310;4.462;2023-07-31T11:11:08;19.10;99.90
12833;DHT22;6483;51.310;4.462;2023-07-31T11:13:47;19.20;99.90
12833;DHT22;6483;51.310;4.462;2023-07-31T11:16:19;19.30;99.90
12833;DHT22;6483;51.310;4.462;2023-07-31T11:18:46;19.20;99.90
12833;DHT22;6483;51.310;4.462;2023-07-31T11:21:16;19.20;99.90
12833;DHT22;6483;51.310;4.462;2023-07-31T11:23:50;19.30;99.90
12833;DHT22;6483;51.310;4.462;2023-07-31T11:26:17;19.40;99.90
12833;DHT22;6483;51.310;4.462;2023-07-31T11:28:45;19.30;99.90
12833;DHT22;6483;51.310;4.462;2023-07-31T11:31:11;19.30;99.90
12833;DHT22;6483;51.310;4.462;2023-07-31T11:33:37;19.20;99.90
12833;DHT22;6483;51.310;4.462;2023-07-31T11:36:03;19.00;99.90
12833;DHT22;6483;51.310;4.462;2023-07-31T11:38:33;18.90;99.90
12833;DHT22;6483;51.310;4.462;2023-07-31T11:41:04;18.90;99.90
12833;DHT22;6483;51.310;4.462;2023-07-31T11:43:31;18.80;99.90
12833;DHT22;6483;51.310;4.462;2023-07-31T11:45:58;18.80;99.90
12833;DHT22;6483;51.310;4.462;2023-07-31T11:48:26;18.90;99.90
12833;DHT22;6483;51.310;4.462;2023-07-31T11:50:58;19.10;99.90
12833;DHT22;6483;51.310;4.462;2023-07-31T11:53:52;19.20;99.90
12833;DHT22;6483;51.310;4.462;2023-07-31T11:56:20;19.20;99.90
12833;DHT22;6483;51.310;4.462;2023-07-31T11:58:48;19.30;99.90
12833;DHT22;6483;51.310;4.462;2023-07-31T12:01:16;19.40;99.90
12833;DHT22;6483;51.310;4.462;2023-07-31T12:03:43;19.30;99.90
12833;DHT22;6483;51.310;4.462;2023-07-31T12:06:09;19.30;99.90
12833;DHT22;6483;51.310;4.462;2023-07-31T12:08:36;19.30;99.90
12833;DHT22;6483;51.310;4.462;2023-07-31T12:11:09;19.50;99.90
12833;DHT22;6483;51.310;4.462;2023-07-31T12:13:35;19.80;99.90
12833;DHT22;6483;51.310;4.462;2023-07-31T12:16:02;20.10;99.90
12833;DHT22;6483;51.310;4.462;2023-07-31T12:18:29;20.40;99.90
12833;DHT22;6483;51.310;4.462;2023-07-31T12:20:57;20.30;99.90
12833;DHT22;6483;51.310;4.462;2023-07-31T12:23:26;20.30;99.90
12833;DHT22;6483;51.310;4.462;2023-07-31T12:26:06;20.10;99.90
12833;DHT22;6483;51.310;4.462;2023-07-31T12:28:44;20.00;99.90
12833;DHT22;6483;51.310;4.462;2023-07-31T12:31:11;19.80;99.90
12833;DHT22;6483;51.310;4.462;2023-07-31T12:33:38;19.80;99.90
12833;DHT22;6483;51.310;4.462;2023-07-31T12:36:12;19.70;99.90
12833;DHT22;6483;51.310;4.462;2023-07-31T12:38:38;19.70;99.90
12833;DHT22;6483;51.310;4.462;2023-07-31T12:41:04;19.80;99.90
12833;DHT22;6483;51.310;4.462;2023-07-31T12:43:31;19.80;99.90
12833;DHT22;6483;51.310;4.462;2023-07-31T12:45:57;19.80;99.90
12833;DHT22;6483;51.310;4.462;2023-07-31T12:48:23;19.80;99.90
12833;DHT22;6483;51.310;4.462;2023-07-31T12:50:49;19.80;99.90
12833;DHT22;6483;51.310;4.462;2023-07-31T12:53:17;19.70;99.90
12833;DHT22;6483;51.310;4.462;2023-07-31T12:55:43;19.60;99.90
12833;DHT22;6483;51.310;4.462;2023-07-31T12:58:09;19.50;99.90
12833;DHT22;6483;51.310;4.462;2023-07-31T13:00:35;19.20;99.90
12833;DHT22;6483;51.310;4.462;2023-07-31T13:03:01;19.00;99.90
12833;DHT22;6483;51.310;4.462;2023-07-31T13:05:27;18.80;99.90
12833;DHT22;6483;51.310;4.462;2023-07-31T13:07:53;18.70;99.90
12833;DHT22;6483;51.310;4.462;2023-07-31T13:10:20;18.60;99.90
12833;DHT22;6483;51.310;4.462;2023-07-31T13:12:45;18.60;99.90
12833;DHT22;6483;51.310;4.462;2023-07-31T13:15:12;18.60;99.90
12833;DHT22;6483;51.310;4.462;2023-07-31T13:17:38;18.70;99.90
12833;DHT22;6483;51.310;4.462;2023-07-31T13:20:04;18.70;99.90
12833;DHT22;6483;51.310;4.462;2023-07-31T13:22:30;18.80;99.90
12833;DHT22;6483;51.310;4.462;2023-07-31T13:24:56;18.80;99.90
12833;DHT22;6483;51.310;4.462;2023-07-31T13:27:22;18.80;99.90
12833;DHT22;6483;51.310;4.462;2023-07-31T13:29:51;18.80;99.90
12833;DHT22;6483;51.310;4.462;2023-07-31T13:32:18;18.90;99.90
12833;DHT22;6483;51.310;4.462;2023-07-31T13:34:45;18.70;99.90
12833;DHT22;6483;51.310;4.462;2023-07-31T13:37:11;18.60;99.90
12833;DHT22;6483;51.310;4.462;2023-07-31T13:39:37;18.60;99.90
12833;DHT22;6483;51.310;4.462;2023-07-31T13:42:03;18.50;99.90
12833;DHT22;6483;51.310;4.462;2023-07-31T13:44:29;18.40;99.90
12833;DHT22;6483;51.310;4.462;2023-07-31T13:46:54;18.40;99.90
12833;DHT22;6483;51.310;4.462;2023-07-31T13:49:20;18.40;99.90
12833;DHT22;6483;51.310;4.462;2023-07-31T13:51:46;18.40;99.90
12833;DHT22;6483;51.310;4.462;2023-07-31T13:54:11;18.40;99.90
12833;DHT22;6483;51.310;4.462;2023-07-31T13:56:37;18.30;99.90
12833;DHT22;6483;51.310;4.462;2023-07-31T13:59:03;18.20;99.90
12833;DHT22;6483;51.310;4.462;2023-07-31T14:01:29;18.20;99.90
12833;DHT22;6483;51.310;4.462;2023-07-31T14:03:55;18.20;99.90
12833;DHT22;6483;51.310;4.462;2023-07-31T14:06:20;18.20;99.90
12833;DHT22;6483;51.310;4.462;2023-07-31T14:08:46;18.20;99.90
12833;DHT22;6483;51.310;4.462;2023-07-31T14:11:12;18.20;99.90
12833;DHT22;6483;51.310;4.462;2023-07-31T14:13:37;18.20;99.90
12833;DHT22;6483;51.310;4.462;2023-07-31T14:16:03;18.10;99.90
12833;DHT22;6483;51.310;4.462;2023-07-31T14:18:29;18.10;99.90
12833;DHT22;6483;51.310;4.462;2023-07-31T14:20:55;18.10;99.90
12833;DHT22;6483;51.310;4.462;2023-07-31T14:23:20;18.10;99.90
12833;DHT22;6483;51.310;4.462;2023-07-31T14:25:47;18.00;99.90
12833;DHT22;6483;51.310;4.462;2023-07-31T14:28:13;18.00;99.90
12833;DHT22;6483;51.310;4.462;2023-07-31T14:30:39;17.90;99.90
12833;DHT22;6483;51.310;4.462;2023-07-31T14:33:04;17.90;99.90
12833;DHT22;6483;51.310;4.462;2023-07-31T14:35:30;17.90;99.90
12833;DHT22;6483;51.310;4.462;2023-07-31T14:37:56;17.90;99.90
12833;DHT22;6483;51.310;4.462;2023-07-31T14:40:21;17.90;99.90
12833;DHT22;6483;51.310;4.462;2023-07-31T14:42:47;17.80;99.90
12833;DHT22;6483;51.310;4.462;2023-07-31T14:45:13;17.80;99.90
12833;DHT22;6483;51.310;4.462;2023-07-31T14:47:38;17.80;99.90
12833;DHT22;6483;51.310;4.462;2023-07-31T14:50:05;17.90;99.90
12833;DHT22;6483;51.310;4.462;2023-07-31T14:52:30;17.90;99.90
12833;DHT22;6483;51.310;4.462;2023-07-31T14:54:56;17.90;99.90
12833;DHT22;6483;51.310;4.462;2023-07-31T14:57:22;17.90;99.90
12833;DHT22;6483;51.310;4.462;2023-07-31T14:59:47;17.80;99.90
12833;DHT22;6483;51.310;4.462;2023-07-31T15:02:14;17.80;99.90
12833;DHT22;6483;51.310;4.462;2023-07-31T15:04:39;17.70;99.90
12833;DHT22;6483;51.310;4.462;2023-07-31T15:07:05;17.70;99.90
12833;DHT22;6483;51.310;4.462;2023-07-31T15:09:31;17.80;99.90
12833;DHT22;6483;51.310;4.462;2023-07-31T15:11:57;17.70;99.90
12833;DHT22;6483;51.310;4.462;2023-07-31T15:14:24;17.70;99.90
12833;DHT22;6483;51.310;4.462;2023-07-31T15:16:49;17.70;99.90
12833;DHT22;6483;51.310;4.462;2023-07-31T15:19:16;17.70;99.90
12833;DHT22;6483;51.310;4.462;2023-07-31T15:21:41;17.70;99.90
12833;DHT22;6483;51.310;4.462;2023-07-31T15:24:07;17.70;99.90
12833;DHT22;6483;51.310;4.462;2023-07-31T15:26:33;17.70;99.90
12833;DHT22;6483;51.310;4.462;2023-07-31T15:29:03;17.80;99.90
12833;DHT22;6483;51.310;4.462;2023-07-31T15:31:34;17.80;99.90
12833;DHT22;6483;51.310;4.462;2023-07-31T15:34:00;17.80;99.90
12833;DHT22;6483;51.310;4.462;2023-07-31T15:36:25;17.80;99.90
12833;DHT22;6483;51.310;4.462;2023-07-31T15:38:51;17.80;99.90
12833;DHT22;6483;51.310;4.462;2023-07-31T15:41:18;17.80;99.90
12833;DHT22;6483;51.310;4.462;2023-07-31T15:43:44;17.80;99.90
12833;DHT22;6483;51.310;4.462;2023-07-31T15:46:10;17.80;99.90
12833;DHT22;6483;51.310;4.462;2023-07-31T15:48:35;17.70;99.90
12833;DHT22;6483;51.310;4.462;2023-07-31T15:51:02;17.70;99.90
12833;DHT22;6483;51.310;4.462;2023-07-31T15:53:29;17.70;99.90
12833;DHT22;6483;51.310;4.462;2023-07-31T15:55:54;17.70;99.90